sensor_id;sensor_type;location;lat;lon;timestamp;pressure;altitude;pressure_sealevel;temperature;humidity
8575;BME280;4325;42.520;27.448;2022-08-21T00:00:20;100333.91;;;26.51;100.00
8575;BME280;4325;42.520;27.448;2022-08-21T00:02:50;100342.69;;;26.46;100.00
8575;BME280;4325;42.520;27.448;2022-08-21T00:05:18;100323.38;;;26.41;100.00
8575;BME280;4325;42.520;27.448;2022-08-21T00:07:45;100323.38;;;26.38;100.00
8575;BME280;4325;42.520;27.448;2022-08-21T00:10:13;100323.72;;;26.33;100.00
8575;BME280;4325;42.520;27.448;2022-08-21T00:12:41;100317.69;;;26.31;100.00
8575;BME280;4325;42.520;27.448;2022-08-21T00:15:12;100313.66;;;26.32;100.00
8575;BME280;4325;42.520;27.448;2022-08-21T00:17:39;100312.06;;;26.31;100.00
8575;BME280;4325;42.520;27.448;2022-08-21T00:20:09;100319.28;;;26.28;100.00
8575;BME280;4325;42.520;27.448;2022-08-21T00:22:36;100315.25;;;26.26;100.00
8575;BME280;4325;42.520;27.448;2022-08-21T00:25:04;100315.25;;;26.26;100.00
8575;BME280;4325;42.520;27.448;2022-08-21T00:27:31;100315.25;;;26.26;100.00
8575;BME280;4325;42.520;27.448;2022-08-21T00:29:58;100317.59;;;26.23;100.00
8575;BME280;4325;42.520;27.448;2022-08-21T00:32:27;100309.16;;;26.20;100.00
8575;BME280;4325;42.520;27.448;2022-08-21T00:34:54;100309.56;;;26.18;100.00
8575;BME280;4325;42.520;27.448;2022-08-21T00:37:21;100310.28;;;26.12;100.00
8575;BME280;4325;42.520;27.448;2022-08-21T00:39:49;100309.84;;;26.10;100.00
8575;BME280;4325;42.520;27.448;2022-08-21T00:42:16;100306.22;;;26.09;100.00
8575;BME280;4325;42.520;27.448;2022-08-21T00:44:47;100307.09;;;26.13;100.00
8575;BME280;4325;42.520;27.448;2022-08-21T00:47:14;100298.34;;;26.18;100.00
8575;BME280;4325;42.520;27.448;2022-08-21T00:49:43;100299.06;;;26.12;100.00
8575;BME280;4325;42.520;27.448;2022-08-21T00:52:14;100290.09;;;25.99;100.00
8575;BME280;4325;42.520;27.448;2022-08-21T00:54:42;100296.91;;;25.98;100.00
8575;BME280;4325;42.520;27.448;2022-08-21T00:57:14;100302.09;;;25.96;100.00
8575;BME280;4325;42.520;27.448;2022-08-21T00:59:44;100298.84;;;25.94;100.00
8575;BME280;4325;42.520;27.448;2022-08-21T01:02:12;100300.34;;;25.85;100.00
8575;BME280;4325;42.520;27.448;2022-08-21T01:04:39;100304.66;;;25.75;100.00
8575;BME280;4325;42.520;27.448;2022-08-21T01:07:07;100307.03;;;25.73;100.00
8575;BME280;4325;42.520;27.448;2022-08-21T01:09:35;100307.91;;;25.77;100.00
8575;BME280;4325;42.520;27.448;2022-08-21T01:12:03;100306.69;;;25.75;100.00
8575;BME280;4325;42.520;27.448;2022-08-21T01:14:30;100307.44;;;25.72;100.00
8575;BME280;4325;42.520;27.448;2022-08-21T01:16:58;100306.56;;;25.68;100.00
8575;BME280;4325;42.520;27.448;2022-08-21T01:19:26;100302.03;;;25.52;100.00
8575;BME280;4325;42.520;27.448;2022-08-21T01:21:55;100295.94;;;25.47;100.00
8575;BME280;4325;42.520;27.448;2022-08-21T01:24:23;100300.69;;;25.43;100.00
8575;BME280;4325;42.520;27.448;2022-08-21T01:26:51;100299.03;;;25.42;100.00
8575;BME280;4325;42.520;27.448;2022-08-21T01:29:25;100300.13;;;25.34;100.00
8575;BME280;4325;42.520;27.448;2022-08-21T01:31:55;100303.28;;;25.29;100.00
8575;BME280;4325;42.520;27.448;2022-08-21T01:34:22;100303.59;;;25.24;100.00
8575;BME280;4325;42.520;27.448;2022-08-21T01:36:49;100299.59;;;25.21;100.00
8575;BME280;4325;42.520;27.448;2022-08-21T01:39:18;100296.00;;;25.21;100.00
8575;BME280;4325;42.520;27.448;2022-08-21T01:41:45;100292.31;;;25.17;100.00
8575;BME280;4325;42.520;27.448;2022-08-21T01:44:11;100293.13;;;25.17;100.00
8575;BME280;4325;42.520;27.448;2022-08-21T01:46:38;100293.94;;;25.18;100.00
8575;BME280;4325;42.520;27.448;2022-08-21T01:49:06;100295.03;;;25.10;100.00
8575;BME280;4325;42.520;27.448;2022-08-21T01:51:33;100290.63;;;25.09;100.00
8575;BME280;4325;42.520;27.448;2022-08-21T01:54:00;100298.06;;;24.98;100.00
8575;BME280;4325;42.520;27.448;2022-08-21T01:56:28;100294.41;;;24.93;100.00
8575;BME280;4325;42.520;27.448;2022-08-21T01:58:55;100292.31;;;24.87;100.00
8575;BME280;4325;42.520;27.448;2022-08-21T02:01:22;100284.19;;;24.78;100.00
8575;BME280;4325;42.520;27.448;2022-08-21T02:03:49;100284.91;;;24.75;100.00
8575;BME280;4325;42.520;27.448;2022-08-21T02:06:16;100282.00;;;24.68;100.00
8575;BME280;4325;42.520;27.448;2022-08-21T02:08:44;100285.13;;;24.63;100.00
8575;BME280;4325;42.520;27.448;2022-08-21T02:11:11;100283.09;;;24.60;100.00
8575;BME280;4325;42.520;27.448;2022-08-21T02:13:40;100289.00;;;24.55;100.00
8575;BME280;4325;42.520;27.448;2022-08-21T02:16:07;100284.69;;;24.61;100.00
8575;BME280;4325;42.520;27.448;2022-08-21T02:18:34;100289.13;;;24.62;100.00
8575;BME280;4325;42.520;27.448;2022-08-21T02:21:02;100283.41;;;24.55;100.00
8575;BME280;4325;42.520;27.448;2022-08-21T02:23:29;100289.00;;;24.55;100.00
8575;BME280;4325;42.520;27.448;2022-08-21T02:25:57;100287.28;;;24.47;100.00
8575;BME280;4325;42.520;27.448;2022-08-21T02:28:24;100291.13;;;24.39;100.00
8575;BME280;4325;42.520;27.448;2022-08-21T02:30:53;100297.94;;;24.38;100.00
8575;BME280;4325;42.520;27.448;2022-08-21T02:33:21;100289.47;;;24.35;100.00
8575;BME280;4325;42.520;27.448;2022-08-21T02:35:48;100294.72;;;24.36;100.00
8575;BME280;4325;42.520;27.448;2022-08-21T02:38:19;100291.44;;;24.34;100.00
8575;BME280;4325;42.520;27.448;2022-08-21T02:40:48;100292.66;;;24.33;100.00
8575;BME280;4325;42.520;27.448;2022-08-21T02:43:16;100298.25;;;24.33;100.00
8575;BME280;4325;42.520;27.448;2022-08-21T02:45:43;100295.88;;;24.35;100.00
8575;BME280;4325;42.520;27.448;2022-08-21T02:48:14;100294.25;;;24.34;100.00
8575;BME280;4325;42.520;27.448;2022-08-21T02:50:46;100289.47;;;24.35;100.00
8575;BME280;4325;42.520;27.448;2022-08-21T02:53:15;100293.47;;;24.34;100.00
8575;BME280;4325;42.520;27.448;2022-08-21T02:55:43;100291.03;;;24.32;100.00
8575;BME280;4325;42.520;27.448;2022-08-21T02:58:11;100298.13;;;24.26;100.00
8575;BME280;4325;42.520;27.448;2022-08-21T03:00:38;100301.28;;;24.24;100.00
8575;BME280;4325;42.520;27.448;2022-08-21T03:03:05;100293.69;;;24.25;100.00
8575;BME280;4325;42.520;27.448;2022-08-21T03:05:35;100296.06;;;24.23;100.00
8575;BME280;4325;42.520;27.448;2022-08-21T03:08:06;100298.56;;;24.28;100.00
8575;BME280;4325;42.520;27.448;2022-08-21T03:10:35;100296.63;;;24.32;100.00
8575;BME280;4325;42.520;27.448;2022-08-21T03:13:05;100300.63;;;24.31;100.00
8575;BME280;4325;42.520;27.448;2022-08-21T03:15:32;100296.63;;;24.32;100.00
8575;BME280;4325;42.520;27.448;2022-08-21T03:17:59;100299.41;;;24.32;100.00
8575;BME280;4325;42.520;27.448;2022-08-21T03:20:27;100298.13;;;24.26;100.00
8575;BME280;4325;42.520;27.448;2022-08-21T03:22:56;100306.88;;;24.24;100.00
8575;BME280;4325;42.520;27.448;2022-08-21T03:25:25;100305.63;;;24.22;100.00
8575;BME280;4325;42.520;27.448;2022-08-21T03:27:52;100306.53;;;24.26;100.00
8575;BME280;4325;42.520;27.448;2022-08-21T03:30:21;100306.06;;;24.24;100.00
8575;BME280;4325;42.520;27.448;2022-08-21T03:32:48;100310.88;;;24.23;100.00
8575;BME280;4325;42.520;27.448;2022-08-21T03:35:16;100305.22;;;24.20;100.00
8575;BME280;4325;42.520;27.448;2022-08-21T03:37:44;100303.34;;;24.27;100.00
8575;BME280;4325;42.520;27.448;2022-08-21T03:40:14;100307.00;;;24.32;100.00
8575;BME280;4325;42.520;27.448;2022-08-21T03:42:41;100307.50;;;24.37;100.00
8575;BME280;4325;42.520;27.448;2022-08-21T03:45:09;100315.16;;;24.40;100.00
8575;BME280;4325;42.520;27.448;2022-08-21T03:47:36;100309.66;;;24.47;100.00
8575;BME280;4325;42.520;27.448;2022-08-21T03:50:04;100312.91;;;24.49;100.00
8575;BME280;4325;42.520;27.448;2022-08-21T03:52:31;100308.91;;;24.50;100.00
8575;BME280;4325;42.520;27.448;2022-08-21T03:54:57;100315.44;;;24.58;100.00
8575;BME280;4325;42.520;27.448;2022-08-21T03:57:26;100323.47;;;24.59;100.00
8575;BME280;4325;42.520;27.448;2022-08-21T03:59:53;100319.41;;;24.57;100.00
8575;BME280;4325;42.520;27.448;2022-08-21T04:02:20;100320.66;;;24.59;100.00
8575;BME280;4325;42.520;27.448;2022-08-21T04:04:47;100319.13;;;24.65;100.00
8575;BME280;4325;42.520;27.448;2022-08-21T04:07:14;100326.91;;;24.75;100.00
8575;BME280;4325;42.520;27.448;2022-08-21T04:09:41;100324.69;;;24.84;100.00
8575;BME280;4325;42.520;27.448;2022-08-21T04:12:08;100324.88;;;24.99;100.00
8575;BME280;4325;42.520;27.448;2022-08-21T04:14:36;100330.28;;;25.14;100.00
8575;BME280;4325;42.520;27.448;2022-08-21T04:17:03;100330.13;;;25.30;100.00
8575;BME280;4325;42.520;27.448;2022-08-21T04:19:30;100319.09;;;25.44;100.00
8575;BME280;4325;42.520;27.448;2022-08-21T04:21:57;100322.88;;;25.55;100.00
8575;BME280;4325;42.520;27.448;2022-08-21T04:24:24;100325.75;;;25.62;100.00
8575;BME280;4325;42.520;27.448;2022-08-21T04:26:51;100323.47;;;25.71;100.00
8575;BME280;4325;42.520;27.448;2022-08-21T04:29:18;100332.78;;;25.82;100.00
8575;BME280;4325;42.520;27.448;2022-08-21T04:31:46;100319.28;;;25.91;100.00
8575;BME280;4325;42.520;27.448;2022-08-21T04:34:13;100327.75;;;25.98;100.00
8575;BME280;4325;42.520;27.448;2022-08-21T04:36:40;100329.47;;;26.06;100.00
8575;BME280;4325;42.520;27.448;2022-08-21T04:39:07;100323.16;;;26.16;100.00
8575;BME280;4325;42.520;27.448;2022-08-21T04:41:34;100328.06;;;26.27;100.00
8575;BME280;4325;42.520;27.448;2022-08-21T04:44:01;100327.34;;;26.37;100.00
8575;BME280;4325;42.520;27.448;2022-08-21T04:46:28;100318.56;;;26.42;100.00
8575;BME280;4325;42.520;27.448;2022-08-21T04:48:57;100329.91;;;26.56;100.00
8575;BME280;4325;42.520;27.448;2022-08-21T04:51:26;100324.34;;;26.63;100.00
8575;BME280;4325;42.520;27.448;2022-08-21T04:53:57;100328.50;;;26.76;100.00
8575;BME280;4325;42.520;27.448;2022-08-21T04:56:29;100330.59;;;26.86;100.00
8575;BME280;4325;42.520;27.448;2022-08-21T04:59:00;100321.38;;;26.93;100.00
8575;BME280;4325;42.520;27.448;2022-08-21T05:01:29;100320.56;;;26.92;100.00
8575;BME280;4325;42.520;27.448;2022-08-21T05:04:02;100321.38;;;26.89;100.00
8575;BME280;4325;42.520;27.448;2022-08-21T05:06:33;100318.97;;;26.91;100.00
8575;BME280;4325;42.520;27.448;2022-08-21T05:09:03;100318.13;;;26.87;100.00
8575;BME280;4325;42.520;27.448;2022-08-21T05:11:31;100314.56;;;26.90;100.00
8575;BME280;4325;42.520;27.448;2022-08-21T05:13:58;100311.75;;;26.90;100.00
8575;BME280;4325;42.520;27.448;2022-08-21T05:16:25;100312.50;;;26.87;100.00
8575;BME280;4325;42.520;27.448;2022-08-21T05:18:53;100316.19;;;26.91;100.00
8575;BME280;4325;42.520;27.448;2022-08-21T05:21:21;100317.00;;;26.95;100.00
8575;BME280;4325;42.520;27.448;2022-08-21T05:23:48;100313.41;;;26.98;100.00
8575;BME280;4325;42.520;27.448;2022-08-21T05:26:14;100320.72;;;27.13;100.00
8575;BME280;4325;42.520;27.448;2022-08-21T05:28:41;100310.69;;;27.19;100.00
8575;BME280;4325;42.520;27.448;2022-08-21T05:31:08;100316.72;;;27.21;100.00
8575;BME280;4325;42.520;27.448;2022-08-21T05:33:35;100311.94;;;27.25;100.00
8575;BME280;4325;42.520;27.448;2022-08-21T05:36:03;100315.56;;;27.29;100.00
8575;BME280;4325;42.520;27.448;2022-08-21T05:38:31;100325.63;;;27.30;100.00
8575;BME280;4325;42.520;27.448;2022-08-21T05:40:58;100321.66;;;27.38;100.00
8575;BME280;4325;42.520;27.448;2022-08-21T05:43:25;100321.31;;;27.50;100.00
8575;BME280;4325;42.520;27.448;2022-08-21T05:45:52;100332.16;;;27.48;100.00
8575;BME280;4325;42.520;27.448;2022-08-21T05:48:21;100332.56;;;27.47;100.00
8575;BME280;4325;42.520;27.448;2022-08-21T05:50:50;100328.50;;;27.41;100.00
8575;BME280;4325;42.520;27.448;2022-08-21T05:53:18;100339.03;;;27.55;100.00
8575;BME280;4325;42.520;27.448;2022-08-21T05:55:48;100330.63;;;27.62;100.00
8575;BME280;4325;42.520;27.448;2022-08-21T05:58:17;100337.84;;;27.70;100.00
8575;BME280;4325;42.520;27.448;2022-08-21T06:00:46;100340.28;;;27.75;100.00
8575;BME280;4325;42.520;27.448;2022-08-21T06:03:15;100340.31;;;27.82;100.00
8575;BME280;4325;42.520;27.448;2022-08-21T06:05:43;100336.31;;;27.83;100.00
8575;BME280;4325;42.520;27.448;2022-08-21T06:08:11;100334.63;;;27.61;100.00
8575;BME280;4325;42.520;27.448;2022-08-21T06:10:38;100337.41;;;27.54;100.00
8575;BME280;4325;42.520;27.448;2022-08-21T06:13:06;100326.56;;;27.56;100.00
8575;BME280;4325;42.520;27.448;2022-08-21T06:15:33;100332.19;;;27.56;100.00
8575;BME280;4325;42.520;27.448;2022-08-21T06:18:00;100329.00;;;27.68;100.00
8575;BME280;4325;42.520;27.448;2022-08-21T06:20:27;100332.28;;;27.84;97.57
8575;BME280;4325;42.520;27.448;2022-08-21T06:22:55;100329.50;;;27.91;96.78
8575;BME280;4325;42.520;27.448;2022-08-21T06:25:21;100329.16;;;28.03;96.43
8575;BME280;4325;42.520;27.448;2022-08-21T06:27:49;100331.59;;;28.15;97.32
8575;BME280;4325;42.520;27.448;2022-08-21T06:30:18;100327.16;;;28.28;96.69
8575;BME280;4325;42.520;27.448;2022-08-21T06:32:45;100327.59;;;28.44;95.66
8575;BME280;4325;42.520;27.448;2022-08-21T06:35:12;100330.84;;;28.64;94.84
8575;BME280;4325;42.520;27.448;2022-08-21T06:37:39;100342.09;;;28.89;92.04
8575;BME280;4325;42.520;27.448;2022-08-21T06:40:07;100332.38;;;29.07;89.25
8575;BME280;4325;42.520;27.448;2022-08-21T06:42:34;100334.78;;;29.23;88.48
8575;BME280;4325;42.520;27.448;2022-08-21T06:45:01;100334.75;;;29.33;86.96
8575;BME280;4325;42.520;27.448;2022-08-21T06:47:29;100337.91;;;29.46;86.43
8575;BME280;4325;42.520;27.448;2022-08-21T06:49:56;100326.66;;;29.39;85.80
8575;BME280;4325;42.520;27.448;2022-08-21T06:52:23;100333.16;;;29.29;86.16
8575;BME280;4325;42.520;27.448;2022-08-21T06:54:50;100323.88;;;29.11;87.68
8575;BME280;4325;42.520;27.448;2022-08-21T06:57:17;100321.94;;;29.01;88.33
8575;BME280;4325;42.520;27.448;2022-08-21T06:59:44;100315.88;;;29.02;88.30
8575;BME280;4325;42.520;27.448;2022-08-21T07:02:10;100330.75;;;29.24;86.71
8575;BME280;4325;42.520;27.448;2022-08-21T07:04:39;100323.84;;;29.35;84.03
8575;BME280;4325;42.520;27.448;2022-08-21T07:07:06;100323.44;;;29.44;82.67
8575;BME280;4325;42.520;27.448;2022-08-21T07:09:32;100328.56;;;29.67;80.00
8575;BME280;4325;42.520;27.448;2022-08-21T07:12:00;100320.41;;;29.86;77.07
8575;BME280;4325;42.520;27.448;2022-08-21T07:14:27;100322.31;;;30.07;76.37
8575;BME280;4325;42.520;27.448;2022-08-21T07:16:53;100324.63;;;30.23;74.26
8575;BME280;4325;42.520;27.448;2022-08-21T07:19:20;100329.81;;;30.35;75.33
8575;BME280;4325;42.520;27.448;2022-08-21T07:21:49;100317.97;;;30.50;73.10
8575;BME280;4325;42.520;27.448;2022-08-21T07:24:15;100313.00;;;30.65;71.11
8575;BME280;4325;42.520;27.448;2022-08-21T07:26:42;100324.91;;;30.90;70.92
8575;BME280;4325;42.520;27.448;2022-08-21T07:29:09;100314.09;;;31.19;71.17
8575;BME280;4325;42.520;27.448;2022-08-21T07:31:36;100317.91;;;31.35;70.53
8575;BME280;4325;42.520;27.448;2022-08-21T07:34:03;100312.81;;;31.23;67.11
8575;BME280;4325;42.520;27.448;2022-08-21T07:36:30;100322.31;;;31.06;66.46
8575;BME280;4325;42.520;27.448;2022-08-21T07:38:58;100320.31;;;31.03;68.42
8575;BME280;4325;42.520;27.448;2022-08-21T07:41:27;100317.81;;;31.12;68.17
8575;BME280;4325;42.520;27.448;2022-08-21T07:43:55;100326.88;;;31.30;66.95
8575;BME280;4325;42.520;27.448;2022-08-21T07:46:22;100315.41;;;31.45;66.02
8575;BME280;4325;42.520;27.448;2022-08-21T07:48:49;100319.09;;;31.72;65.16
8575;BME280;4325;42.520;27.448;2022-08-21T07:51:17;100310.72;;;31.91;62.13
8575;BME280;4325;42.520;27.448;2022-08-21T07:53:47;100305.69;;;32.06;64.30
8575;BME280;4325;42.520;27.448;2022-08-21T07:56:16;100304.63;;;32.23;64.50
8575;BME280;4325;42.520;27.448;2022-08-21T07:58:43;100318.03;;;32.69;61.18
8575;BME280;4325;42.520;27.448;2022-08-21T08:01:10;100314.66;;;33.40;57.17
8575;BME280;4325;42.520;27.448;2022-08-21T08:03:37;100315.75;;;34.37;53.26
8575;BME280;4325;42.520;27.448;2022-08-21T08:06:05;100316.22;;;35.42;49.88
8575;BME280;4325;42.520;27.448;2022-08-21T08:08:34;100312.25;;;36.43;46.57
8575;BME280;4325;42.520;27.448;2022-08-21T08:11:01;100313.69;;;37.63;43.71
8575;BME280;4325;42.520;27.448;2022-08-21T08:13:29;100313.78;;;38.43;41.46
8575;BME280;4325;42.520;27.448;2022-08-21T08:15:56;100314.53;;;39.02;39.21
8575;BME280;4325;42.520;27.448;2022-08-21T08:18:23;100305.44;;;37.87;41.82
8575;BME280;4325;42.520;27.448;2022-08-21T08:20:50;100298.34;;;37.92;41.68
8575;BME280;4325;42.520;27.448;2022-08-21T08:23:16;100314.88;;;39.13;40.13
8575;BME280;4325;42.520;27.448;2022-08-21T08:25:43;100305.38;;;40.92;35.56
8575;BME280;4325;42.520;27.448;2022-08-21T08:28:10;100300.53;;;42.24;32.64
8575;BME280;4325;42.520;27.448;2022-08-21T08:30:39;100307.78;;;43.86;30.33
8575;BME280;4325;42.520;27.448;2022-08-21T08:33:05;100301.53;;;45.20;28.45
8575;BME280;4325;42.520;27.448;2022-08-21T08:35:32;100299.84;;;46.06;27.09
8575;BME280;4325;42.520;27.448;2022-08-21T08:37:59;100295.50;;;46.74;25.80
8575;BME280;4325;42.520;27.448;2022-08-21T08:40:33;100290.03;;;45.43;26.49
8575;BME280;4325;42.520;27.448;2022-08-21T08:43:03;100292.97;;;44.36;27.70
8575;BME280;4325;42.520;27.448;2022-08-21T08:45:33;100291.72;;;44.90;27.72
8575;BME280;4325;42.520;27.448;2022-08-21T08:48:04;100281.38;;;44.25;27.99
8575;BME280;4325;42.520;27.448;2022-08-21T08:50:39;100280.09;;;45.71;26.90
8575;BME280;4325;42.520;27.448;2022-08-21T08:53:11;100285.88;;;47.12;25.06
8575;BME280;4325;42.520;27.448;2022-08-21T08:55:40;100280.78;;;48.00;23.99
8575;BME280;4325;42.520;27.448;2022-08-21T08:58:09;100279.06;;;48.64;23.18
8575;BME280;4325;42.520;27.448;2022-08-21T09:00:38;100271.75;;;49.19;22.31
8575;BME280;4325;42.520;27.448;2022-08-21T09:03:06;100265.88;;;48.81;22.64
8575;BME280;4325;42.520;27.448;2022-08-21T09:05:41;100263.41;;;49.28;22.46
8575;BME280;4325;42.520;27.448;2022-08-21T09:08:34;100255.94;;;49.33;22.42
8575;BME280;4325;42.520;27.448;2022-08-21T09:11:12;100258.88;;;49.96;21.47
8575;BME280;4325;42.520;27.448;2022-08-21T09:13:50;100256.25;;;50.25;20.65
8575;BME280;4325;42.520;27.448;2022-08-21T09:16:26;100256.94;;;49.17;22.00
8575;BME280;4325;42.520;27.448;2022-08-21T09:19:04;100250.84;;;47.04;23.68
8575;BME280;4325;42.520;27.448;2022-08-21T09:21:41;100246.69;;;45.65;25.22
8575;BME280;4325;42.520;27.448;2022-08-21T09:24:21;100245.34;;;45.88;25.58
8575;BME280;4325;42.520;27.448;2022-08-21T09:26:57;100234.88;;;44.65;26.74
8575;BME280;4325;42.520;27.448;2022-08-21T09:29:31;100236.13;;;44.53;27.31
8575;BME280;4325;42.520;27.448;2022-08-21T09:31:59;100239.34;;;43.87;28.66
8575;BME280;4325;42.520;27.448;2022-08-21T09:34:30;100237.44;;;45.28;27.76
8575;BME280;4325;42.520;27.448;2022-08-21T09:36:58;100237.22;;;46.88;26.26
8575;BME280;4325;42.520;27.448;2022-08-21T09:39:27;100240.13;;;48.00;25.06
8575;BME280;4325;42.520;27.448;2022-08-21T09:41:58;100241.88;;;48.08;24.44
8575;BME280;4325;42.520;27.448;2022-08-21T09:44:28;100230.84;;;48.92;24.07
8575;BME280;4325;42.520;27.448;2022-08-21T09:46:55;100233.75;;;47.71;24.22
8575;BME280;4325;42.520;27.448;2022-08-21T09:49:31;100228.19;;;45.18;27.46
8575;BME280;4325;42.520;27.448;2022-08-21T09:51:59;100224.72;;;43.33;29.30
8575;BME280;4325;42.520;27.448;2022-08-21T09:54:30;100207.94;;;42.46;31.25
8575;BME280;4325;42.520;27.448;2022-08-21T09:56:59;100222.91;;;43.36;31.08
8575;BME280;4325;42.520;27.448;2022-08-21T09:59:45;100220.00;;;44.89;28.55
8575;BME280;4325;42.520;27.448;2022-08-21T10:02:24;100225.59;;;46.25;27.20
8575;BME280;4325;42.520;27.448;2022-08-21T10:04:55;100222.69;;;47.35;26.06
8575;BME280;4325;42.520;27.448;2022-08-21T10:07:24;100227.50;;;47.97;25.11
8575;BME280;4325;42.520;27.448;2022-08-21T10:10:13;100222.75;;;47.29;26.14
8575;BME280;4325;42.520;27.448;2022-08-21T10:12:47;100221.44;;;47.30;26.04
8575;BME280;4325;42.520;27.448;2022-08-21T10:15:20;100222.09;;;47.12;26.30
8575;BME280;4325;42.520;27.448;2022-08-21T10:17:58;100217.91;;;47.48;25.94
8575;BME280;4325;42.520;27.448;2022-08-21T10:20:35;100210.97;;;46.64;26.97
8575;BME280;4325;42.520;27.448;2022-08-21T10:23:18;100211.22;;;46.66;27.19
8575;BME280;4325;42.520;27.448;2022-08-21T10:25:50;100208.75;;;46.92;26.66
8575;BME280;4325;42.520;27.448;2022-08-21T10:28:23;100214.28;;;47.66;26.13
8575;BME280;4325;42.520;27.448;2022-08-21T10:30:57;100216.44;;;47.90;25.52
8575;BME280;4325;42.520;27.448;2022-08-21T10:33:37;100214.63;;;47.22;26.54
8575;BME280;4325;42.520;27.448;2022-08-21T10:36:15;100218.34;;;47.17;26.20
8575;BME280;4325;42.520;27.448;2022-08-21T10:38:59;100209.25;;;46.33;27.89
8575;BME280;4325;42.520;27.448;2022-08-21T10:41:42;100212.50;;;45.80;28.49
8575;BME280;4325;42.520;27.448;2022-08-21T10:44:25;100197.16;;;44.96;29.67
8575;BME280;4325;42.520;27.448;2022-08-21T10:46:57;100201.44;;;45.51;29.25
8575;BME280;4325;42.520;27.448;2022-08-21T10:49:34;100200.94;;;45.80;28.98
8575;BME280;4325;42.520;27.448;2022-08-21T10:52:20;100197.63;;;46.44;27.81
8575;BME280;4325;42.520;27.448;2022-08-21T10:54:53;100199.88;;;46.79;27.68
8575;BME280;4325;42.520;27.448;2022-08-21T10:57:29;100199.50;;;47.70;26.45
8575;BME280;4325;42.520;27.448;2022-08-21T11:00:03;100194.19;;;47.09;26.81
8575;BME280;4325;42.520;27.448;2022-08-21T11:02:37;100189.28;;;46.13;28.41
8575;BME280;4325;42.520;27.448;2022-08-21T11:05:09;100189.34;;;45.58;28.64
8575;BME280;4325;42.520;27.448;2022-08-21T11:07:43;100190.16;;;45.75;28.78
8575;BME280;4325;42.520;27.448;2022-08-21T11:10:17;100179.19;;;46.53;27.98
8575;BME280;4325;42.520;27.448;2022-08-21T11:12:48;100180.94;;;46.73;27.76
8575;BME280;4325;42.520;27.448;2022-08-21T11:15:31;100174.06;;;46.02;27.71
8575;BME280;4325;42.520;27.448;2022-08-21T11:18:04;100185.41;;;45.55;29.07
8575;BME280;4325;42.520;27.448;2022-08-21T11:20:40;100188.56;;;45.57;28.48
8575;BME280;4325;42.520;27.448;2022-08-21T11:23:14;100179.84;;;45.07;29.30
8575;BME280;4325;42.520;27.448;2022-08-21T11:25:47;100179.81;;;44.96;29.53
8575;BME280;4325;42.520;27.448;2022-08-21T11:28:20;100177.53;;;45.56;29.18
8575;BME280;4325;42.520;27.448;2022-08-21T11:31:00;100181.13;;;46.17;28.09
8575;BME280;4325;42.520;27.448;2022-08-21T11:33:42;100181.84;;;46.45;27.97
8575;BME280;4325;42.520;27.448;2022-08-21T11:36:19;100179.19;;;46.99;27.33
8575;BME280;4325;42.520;27.448;2022-08-21T11:38:55;100162.06;;;47.66;26.13
8575;BME280;4325;42.520;27.448;2022-08-21T11:41:28;100173.66;;;47.66;26.04
8575;BME280;4325;42.520;27.448;2022-08-21T11:44:04;100162.44;;;46.81;26.89
8575;BME280;4325;42.520;27.448;2022-08-21T11:46:40;100164.38;;;46.57;27.34
8575;BME280;4325;42.520;27.448;2022-08-21T11:49:34;100166.13;;;46.24;27.85
8575;BME280;4325;42.520;27.448;2022-08-21T11:52:09;100159.50;;;46.87;26.96
8575;BME280;4325;42.520;27.448;2022-08-21T11:54:44;100161.25;;;46.55;27.59
8575;BME280;4325;42.520;27.448;2022-08-21T11:57:16;100156.50;;;45.61;28.32
8575;BME280;4325;42.520;27.448;2022-08-21T11:59:47;100150.41;;;45.92;27.84
8575;BME280;4325;42.520;27.448;2022-08-21T12:02:20;100148.34;;;46.56;27.07
8575;BME280;4325;42.520;27.448;2022-08-21T12:04:51;100148.25;;;46.09;27.24
8575;BME280;4325;42.520;27.448;2022-08-21T12:07:30;100146.06;;;46.37;27.40
8575;BME280;4325;42.520;27.448;2022-08-21T12:10:00;100148.81;;;46.71;26.99
8575;BME280;4325;42.520;27.448;2022-08-21T12:12:29;100135.81;;;46.25;27.52
8575;BME280;4325;42.520;27.448;2022-08-21T12:15:25;100132.75;;;46.07;27.96
8575;BME280;4325;42.520;27.448;2022-08-21T12:17:58;100127.56;;;45.66;27.89
8575;BME280;4325;42.520;27.448;2022-08-21T12:20:42;100131.25;;;45.78;28.28
8575;BME280;4325;42.520;27.448;2022-08-21T12:23:18;100130.44;;;45.72;28.32
8575;BME280;4325;42.520;27.448;2022-08-21T12:26:03;100131.25;;;45.72;28.23
8575;BME280;4325;42.520;27.448;2022-08-21T12:28:30;100120.88;;;46.10;27.88
8575;BME280;4325;42.520;27.448;2022-08-21T12:30:58;100119.13;;;45.79;27.72
8575;BME280;4325;42.520;27.448;2022-08-21T12:33:29;100106.31;;;45.42;28.21
8575;BME280;4325;42.520;27.448;2022-08-21T12:36:04;100114.94;;;45.19;28.84
8575;BME280;4325;42.520;27.448;2022-08-21T12:38:41;100104.72;;;45.07;28.32
8575;BME280;4325;42.520;27.448;2022-08-21T12:41:24;100112.56;;;44.09;29.76
8575;BME280;4325;42.520;27.448;2022-08-21T12:43:57;100109.34;;;44.60;29.30
8575;BME280;4325;42.520;27.448;2022-08-21T12:46:30;100099.69;;;45.08;28.94
8575;BME280;4325;42.520;27.448;2022-08-21T12:49:02;100122.81;;;45.47;28.07
8575;BME280;4325;42.520;27.448;2022-08-21T12:51:34;100110.75;;;45.37;27.57
8575;BME280;4325;42.520;27.448;2022-08-21T12:54:07;100111.00;;;45.00;28.18
8575;BME280;4325;42.520;27.448;2022-08-21T12:56:36;100111.78;;;45.17;28.52
8575;BME280;4325;42.520;27.448;2022-08-21T12:59:06;100112.06;;;45.47;28.04
8575;BME280;4325;42.520;27.448;2022-08-21T13:01:35;100106.22;;;45.97;27.58
8575;BME280;4325;42.520;27.448;2022-08-21T13:04:08;100102.25;;;46.00;27.00
8575;BME280;4325;42.520;27.448;2022-08-21T13:06:39;100092.56;;;44.81;27.83
8575;BME280;4325;42.520;27.448;2022-08-21T13:09:09;100102.50;;;44.58;28.92